createdAt,value
2019-04-21T00:00:52.253Z,0.00
2019-04-21T00:01:48.421Z,0.00
2019-04-21T00:02:46.028Z,0.00
2019-04-21T00:03:50.102Z,0.00
2019-04-21T00:04:55.389Z,0.00
2019-04-21T00:06:04.610Z,0.00
2019-04-21T00:07:04.447Z,0.00
2019-04-21T00:08:13.821Z,0.00
2019-04-21T00:10:06.391Z,0.00
2019-04-21T00:11:16.132Z,0.00
2019-04-21T00:12:01.472Z,0.00
2019-04-21T00:12:56.173Z,0.00
2019-04-21T00:13:56.293Z,0.00
2019-04-21T00:14:55.789Z,0.00
2019-04-21T00:15:48.900Z,0.00
2019-04-21T00:16:55.263Z,0.00
2019-04-21T00:17:50.811Z,0.00
2019-04-21T00:18:50.584Z,0.00
2019-04-21T00:19:44.640Z,0.00
2019-04-21T00:20:49.800Z,0.00
2019-04-21T00:21:51.135Z,0.00
2019-04-21T00:22:53.350Z,0.00
2019-04-21T00:24:01.307Z,0.00
2019-04-21T00:24:58.357Z,0.00
2019-04-21T00:25:52.934Z,0.00
2019-04-21T00:27:04.101Z,0.00
2019-04-21T00:27:57.669Z,0.00
2019-04-21T00:30:04.603Z,0.00
2019-04-21T00:31:00.538Z,0.00
2019-04-21T00:31:58.459Z,0.00
2019-04-21T00:32:53.980Z,0.00
2019-04-21T00:33:46.137Z,0.00
2019-04-21T00:34:51.179Z,0.00
2019-04-21T00:35:52.135Z,0.00
2019-04-21T00:36:56.149Z,0.00
2019-04-21T00:38:02.274Z,0.00
2019-04-21T00:39:15.550Z,0.00
2019-04-21T00:40:06.393Z,0.00
2019-04-21T00:41:05.636Z,0.00
2019-04-21T00:41:59.274Z,0.00
2019-04-21T00:43:01.257Z,0.00
2019-04-21T00:43:59.870Z,0.00
2019-04-21T00:45:00.527Z,0.00
2019-04-21T00:45:56.836Z,0.00
2019-04-21T00:46:58.097Z,0.00
2019-04-21T00:48:03.933Z,0.00
2019-04-21T00:49:03.088Z,0.00
2019-04-21T00:50:05.060Z,0.00
2019-04-21T00:51:22.417Z,0.00
2019-04-21T00:52:11.401Z,0.00
2019-04-21T00:53:23.120Z,0.00
2019-04-21T00:54:13.334Z,0.00
2019-04-21T00:55:18.548Z,0.00
2019-04-21T00:56:08.508Z,0.00
2019-04-21T00:57:10.591Z,0.00
2019-04-21T00:58:10.670Z,0.00
2019-04-21T00:59:10.105Z,0.00
2019-04-21T01:00:08.989Z,0.00
2019-04-21T01:01:04.455Z,0.00
2019-04-21T01:02:03.273Z,0.00
2019-04-21T01:03:00.938Z,0.00
2019-04-21T01:04:02.270Z,0.00
2019-04-21T01:05:09.140Z,0.00
2019-04-21T01:06:03.184Z,0.00
2019-04-21T01:07:02.880Z,0.00
2019-04-21T01:08:08.454Z,0.00
2019-04-21T01:09:05.908Z,0.00
2019-04-21T01:09:58.963Z,0.00
2019-04-21T01:10:53.050Z,0.00
2019-04-21T01:12:05.135Z,0.00
2019-04-21T01:13:09.597Z,0.00
2019-04-21T01:14:05.561Z,0.00
2019-04-21T01:15:09.149Z,0.00
2019-04-21T01:16:10.164Z,0.00
2019-04-21T01:17:10.052Z,0.00
2019-04-21T01:18:04.805Z,0.00
2019-04-21T01:19:00.468Z,0.00
2019-04-21T01:19:57.198Z,0.00
2019-04-21T01:20:42.171Z,0.00
2019-04-21T01:21:42.155Z,0.00
2019-04-21T01:22:42.131Z,0.00
2019-04-21T01:23:42.393Z,0.00
2019-04-21T01:24:46.658Z,0.00
2019-04-21T01:25:55.889Z,0.00
2019-04-21T01:26:50.680Z,0.00
2019-04-21T01:27:59.388Z,0.00
2019-04-21T01:29:00.012Z,0.00
2019-04-21T01:30:08.496Z,0.00
2019-04-21T01:31:02.363Z,0.00
2019-04-21T01:32:07.250Z,0.00
2019-04-21T01:33:02.020Z,0.00
2019-04-21T01:34:05.663Z,0.00
2019-04-21T01:35:02.417Z,0.00
2019-04-21T01:35:58.069Z,0.00
2019-04-21T01:36:58.865Z,0.00
2019-04-21T01:38:04.978Z,0.00
2019-04-21T01:39:05.352Z,0.00
2019-04-21T01:40:08.513Z,0.00
2019-04-21T01:41:08.565Z,0.00
2019-04-21T01:42:03.314Z,0.00
2019-04-21T01:43:02.555Z,0.00
2019-04-21T01:44:01.583Z,0.00
2019-04-21T01:44:58.327Z,0.00
2019-04-21T01:45:59.247Z,0.00
2019-04-21T01:46:58.659Z,0.00
2019-04-21T01:48:01.182Z,0.00
2019-04-21T01:48:57.010Z,0.00
2019-04-21T01:49:50.103Z,0.00
2019-04-21T01:50:55.753Z,0.00
2019-04-21T01:52:14.566Z,0.00
2019-04-21T01:53:03.964Z,0.00
2019-04-21T01:54:03.835Z,0.00
2019-04-21T01:55:06.486Z,0.00
2019-04-21T01:56:04.813Z,0.00
2019-04-21T01:57:05.577Z,0.00
2019-04-21T01:58:00.457Z,0.00
2019-04-21T01:58:51.846Z,0.00
2019-04-21T01:59:50.266Z,0.00
2019-04-21T02:00:56.787Z,0.00
2019-04-21T02:02:02.239Z,0.00
2019-04-21T02:03:10.703Z,0.00
2019-04-21T02:04:00.016Z,0.00
2019-04-21T02:05:04.381Z,0.00
2019-04-21T02:06:07.688Z,0.00
2019-04-21T02:07:02.833Z,0.00
2019-04-21T02:08:01.023Z,0.00
2019-04-21T02:08:57.968Z,0.00
2019-04-21T02:10:06.456Z,0.00
2019-04-21T02:11:05.157Z,0.00
2019-04-21T02:12:06.078Z,0.00
2019-04-21T02:13:03.237Z,0.00
2019-04-21T02:14:15.677Z,0.00
2019-04-21T02:15:04.631Z,0.00
2019-04-21T02:16:06.893Z,0.00
2019-04-21T02:17:10.320Z,0.00
2019-04-21T02:17:59.459Z,0.00
2019-04-21T02:19:03.103Z,0.00
2019-04-21T02:19:56.425Z,0.00
2019-04-21T02:20:50.105Z,0.00
2019-04-21T02:21:56.732Z,0.00
2019-04-21T02:23:20.749Z,0.00
2019-04-21T02:24:05.703Z,0.00
2019-04-21T02:25:00.969Z,0.00
2019-04-21T02:26:07.704Z,0.00
2019-04-21T02:27:06.814Z,0.00
2019-04-21T02:28:03.692Z,0.00
2019-04-21T02:29:12.398Z,0.00
2019-04-21T02:30:14.280Z,0.00
2019-04-21T02:32:11.197Z,0.00
2019-04-21T02:33:09.599Z,0.00
2019-04-21T02:34:23.552Z,0.00
2019-04-21T02:36:23.310Z,0.00
2019-04-21T02:37:28.516Z,0.00
2019-04-21T02:38:23.848Z,0.00
2019-04-21T02:39:15.784Z,0.00
2019-04-21T02:40:15.039Z,0.00
2019-04-21T02:41:09.534Z,0.00
2019-04-21T02:42:32.462Z,0.00
2019-04-21T02:43:11.305Z,0.00
2019-04-21T02:44:23.385Z,0.00
2019-04-21T02:45:17.718Z,0.00
2019-04-21T02:46:19.540Z,0.00
2019-04-21T02:47:07.015Z,0.00
2019-04-21T02:48:28.673Z,0.00
2019-04-21T02:49:13.244Z,0.00
2019-04-21T02:50:21.185Z,0.00
2019-04-21T02:51:17.586Z,0.00
2019-04-21T02:52:23.749Z,0.00
2019-04-21T02:53:11.475Z,0.00
2019-04-21T02:55:06.250Z,0.00
2019-04-21T02:56:18.000Z,0.00
2019-04-21T02:57:22.920Z,0.00
2019-04-21T03:00:16.928Z,0.00
2019-04-21T03:01:14.518Z,0.00
2019-04-21T03:03:17.206Z,0.00
2019-04-21T03:04:10.612Z,0.00
2019-04-21T03:05:20.314Z,0.00
2019-04-21T03:06:08.331Z,0.00
2019-04-21T03:07:14.240Z,0.00
2019-04-21T03:09:18.290Z,0.00
2019-04-21T03:10:12.280Z,0.00
2019-04-21T03:11:18.246Z,0.00
2019-04-21T03:12:11.543Z,0.00
2019-04-21T03:13:14.080Z,0.00
2019-04-21T03:16:18.457Z,0.00
2019-04-21T03:17:18.247Z,0.00
2019-04-21T03:19:20.366Z,0.00
2019-04-21T03:20:08.721Z,0.00
2019-04-21T03:21:16.330Z,0.00
2019-04-21T03:22:18.252Z,0.00
2019-04-21T03:24:05.284Z,0.00
2019-04-21T03:25:33.645Z,0.00
2019-04-21T03:27:17.298Z,0.00
2019-04-21T03:29:12.121Z,0.00
2019-04-21T03:37:16.816Z,0.00
2019-04-21T03:38:17.130Z,0.00
2019-04-21T03:39:03.052Z,0.00
2019-04-21T03:40:22.215Z,0.00
2019-04-21T03:41:10.643Z,0.00
2019-04-21T03:42:21.525Z,0.00
2019-04-21T03:44:24.681Z,0.00
2019-04-21T03:45:12.665Z,0.00
2019-04-21T03:46:05.972Z,0.00
2019-04-21T03:47:20.819Z,0.00
2019-04-21T03:48:11.411Z,0.00
2019-04-21T03:49:28.983Z,0.00
2019-04-21T03:51:12.504Z,4.00
2019-04-21T03:52:15.068Z,0.00
2019-04-21T03:53:16.758Z,0.00
2019-04-21T03:54:07.606Z,4.00
2019-04-21T03:55:35.460Z,0.00
2019-04-21T03:56:44.366Z,4.00
2019-04-21T03:57:19.844Z,4.00
2019-04-21T03:58:17.945Z,4.00
2019-04-21T03:59:03.925Z,8.00
2019-04-21T04:00:31.840Z,8.00
2019-04-21T04:02:18.628Z,12.00
2019-04-21T04:03:33.353Z,12.00
2019-04-21T04:05:10.929Z,16.00
2019-04-21T04:06:10.764Z,16.00
2019-04-21T04:07:12.973Z,24.00
2019-04-21T04:08:22.584Z,24.00
2019-04-21T04:09:26.398Z,32.00
2019-04-21T04:10:07.736Z,36.00
2019-04-21T04:11:23.196Z,40.00
2019-04-21T04:12:02.712Z,48.00
2019-04-21T04:13:05.940Z,56.00
2019-04-21T04:14:12.966Z,64.00
2019-04-21T04:15:16.187Z,76.00
2019-04-21T04:16:10.219Z,88.00
2019-04-21T04:17:11.647Z,96.00
2019-04-21T04:18:17.636Z,112.00
2019-04-21T04:19:07.729Z,128.00
2019-04-21T04:20:18.883Z,144.00
2019-04-21T04:21:12.960Z,164.00
2019-04-21T04:23:10.227Z,204.00
2019-04-21T04:25:11.543Z,252.00
2019-04-21T04:26:26.069Z,276.00
2019-04-21T04:27:20.261Z,308.00
2019-04-21T04:29:10.852Z,364.00
2019-04-21T04:30:14.731Z,396.00
2019-04-21T04:31:22.312Z,432.00
2019-04-21T04:32:07.832Z,468.00
2019-04-21T04:33:15.055Z,504.00
2019-04-21T04:36:33.385Z,632.00
2019-04-21T04:38:15.426Z,724.00
2019-04-21T04:39:36.611Z,776.00
2019-04-21T04:40:10.456Z,824.00
2019-04-21T04:41:22.278Z,876.00
2019-04-21T04:44:13.650Z,1044.00
2019-04-21T04:45:15.743Z,1108.00
2019-04-21T04:46:09.592Z,1172.00
2019-04-21T04:48:20.239Z,1300.00
2019-04-21T04:49:18.257Z,1364.00
2019-04-21T04:49:59.370Z,1436.00
2019-04-21T04:53:17.066Z,1672.00
2019-04-21T04:54:22.532Z,1744.00
2019-04-21T04:55:06.533Z,1824.00
2019-04-21T04:57:13.836Z,2004.00
2019-04-21T04:58:06.882Z,2104.00
2019-04-21T05:03:01.333Z,2580.00
2019-04-21T05:04:13.967Z,2580.00
2019-04-21T05:05:15.671Z,2632.00
2019-04-21T05:06:24.218Z,2716.00
2019-04-21T05:07:07.095Z,2804.00
2019-04-21T05:08:23.946Z,2892.00
2019-04-21T05:13:07.070Z,3352.00
2019-04-21T05:15:07.920Z,3540.00
2019-04-21T05:16:22.033Z,3636.00
2019-04-21T05:17:02.292Z,3732.00
2019-04-21T05:18:05.009Z,3828.00
2019-04-21T05:20:13.254Z,4036.00
2019-04-21T05:21:12.975Z,4148.00
2019-04-21T05:22:58.310Z,4384.00
2019-04-21T05:23:55.877Z,4516.00
2019-04-21T05:24:53.767Z,4656.00
2019-04-21T05:25:51.185Z,4796.00
2019-04-21T05:26:55.369Z,5544.00
2019-04-21T05:27:52.480Z,7760.00
2019-04-21T05:28:48.646Z,9928.00
2019-04-21T05:30:04.692Z,10756.00
2019-04-21T05:31:06.316Z,11192.00
2019-04-21T05:32:13.409Z,11636.00
2019-04-21T05:33:01.281Z,12008.00
2019-04-21T05:34:01.747Z,12544.00
2019-04-21T05:34:55.752Z,12896.00
2019-04-21T05:35:56.094Z,13248.00
2019-04-21T05:36:59.551Z,13632.00
2019-04-21T05:37:58.660Z,13984.00
2019-04-21T05:38:56.633Z,14208.00
2019-04-21T05:39:53.589Z,14624.00
2019-04-21T05:40:51.215Z,14880.00
2019-04-21T05:41:47.469Z,15264.00
2019-04-21T05:42:55.539Z,15552.00
2019-04-21T05:43:56.400Z,15456.00
2019-04-21T05:45:01.879Z,14496.00
2019-04-21T05:45:58.497Z,15040.00
2019-04-21T05:47:11.226Z,14976.00
2019-04-21T05:48:02.705Z,15520.00
2019-04-21T05:48:57.679Z,15520.00
2019-04-21T05:49:56.115Z,12364.00
2019-04-21T05:50:55.271Z,10416.00
2019-04-21T05:51:52.634Z,14240.00
2019-04-21T05:52:51.949Z,16160.00
2019-04-21T05:54:07.287Z,15616.00
2019-04-21T05:55:56.894Z,18944.00
2019-04-21T05:56:55.523Z,19552.00
2019-04-21T05:57:59.283Z,18080.00
2019-04-21T05:58:55.443Z,22624.00
2019-04-21T05:59:53.140Z,23776.00
2019-04-21T06:02:05.882Z,24288.00
2019-04-21T06:03:04.218Z,16992.00
2019-04-21T06:06:10.773Z,8660.00
2019-04-21T06:07:06.117Z,14784.00
2019-04-21T06:08:00.405Z,20832.00
2019-04-21T06:08:59.476Z,19680.00
2019-04-21T06:09:59.768Z,22656.00
2019-04-21T06:11:02.062Z,18304.00
2019-04-21T06:11:59.913Z,11832.00
2019-04-21T06:12:59.235Z,12196.00
2019-04-21T06:14:04.714Z,17920.00
2019-04-21T06:15:14.009Z,23072.00
2019-04-21T06:17:02.025Z,25120.00
2019-04-21T06:18:02.678Z,31584.00
2019-04-21T06:18:58.628Z,29152.00
2019-04-21T06:19:59.925Z,29888.00
2019-04-21T06:21:00.410Z,28192.00
2019-04-21T06:21:57.421Z,25376.00
2019-04-21T06:22:56.846Z,24544.00
2019-04-21T06:23:57.097Z,24544.00
2019-04-21T06:26:12.324Z,27616.00
2019-04-21T06:28:00.349Z,26464.00
2019-04-21T06:29:00.943Z,33920.00
2019-04-21T06:30:00.156Z,28448.00
2019-04-21T06:31:05.646Z,17344.00
2019-04-21T06:32:21.919Z,16256.00
2019-04-21T06:32:56.716Z,26784.00
2019-04-21T06:33:58.809Z,32352.00
2019-04-21T06:37:18.863Z,16768.00
2019-04-21T06:38:01.533Z,16104.00
2019-04-21T06:39:04.681Z,13352.00
2019-04-21T06:40:15.145Z,11704.00
2019-04-21T06:41:00.407Z,18208.00
2019-04-21T06:41:58.557Z,22208.00
2019-04-21T06:43:13.005Z,29376.00
2019-04-21T06:44:08.163Z,38880.00
2019-04-21T06:45:07.287Z,33952.00
2019-04-21T06:46:06.629Z,37472.00
2019-04-21T06:47:02.457Z,44832.00
2019-04-21T06:47:57.504Z,44704.00
2019-04-21T06:49:01.337Z,45568.00
2019-04-21T06:49:58.421Z,44960.00
2019-04-21T06:50:59.450Z,34432.00
2019-04-21T06:52:33.469Z,29088.00
2019-04-21T06:53:25.967Z,28288.00
2019-04-21T06:55:02.586Z,13748.00
2019-04-21T06:56:03.117Z,21728.00
2019-04-21T06:56:58.593Z,29536.00
2019-04-21T06:57:58.257Z,35712.00
2019-04-21T06:58:56.305Z,38528.00
2019-04-21T06:59:57.194Z,50816.00
2019-04-21T07:00:56.329Z,55232.00
2019-04-21T07:02:19.379Z,52096.00
2019-04-21T07:03:11.056Z,44544.00
2019-04-21T07:04:05.741Z,48896.00
2019-04-21T07:05:00.547Z,44000.00
2019-04-21T07:06:06.999Z,42528.00
2019-04-21T07:07:14.418Z,47072.00
2019-04-21T07:08:19.747Z,44832.00
2019-04-21T07:09:10.243Z,43648.00
2019-04-21T07:10:01.436Z,47424.00
2019-04-21T07:10:56.651Z,45792.00
2019-04-21T07:11:58.166Z,39584.00
2019-04-21T07:12:53.517Z,27520.00
2019-04-21T07:14:16.204Z,29312.00
2019-04-21T07:14:59.463Z,39136.00
2019-04-21T07:16:02.911Z,24032.00
2019-04-21T07:16:57.770Z,13888.00
2019-04-21T07:17:59.910Z,15212.00
2019-04-21T07:19:10.053Z,16932.00
2019-04-21T07:20:03.807Z,36672.00
2019-04-21T07:20:56.479Z,42176.00
2019-04-21T07:21:55.527Z,24896.00
2019-04-21T07:22:55.274Z,29088.00
2019-04-21T07:23:59.161Z,27712.00
2019-04-21T07:24:58.928Z,20160.00
2019-04-21T07:26:00.961Z,26208.00
2019-04-21T07:26:55.548Z,29472.00
2019-04-21T07:27:59.374Z,38528.00
2019-04-21T07:29:01.894Z,43104.00
2019-04-21T07:30:02.515Z,34784.00
2019-04-21T07:31:08.024Z,38528.00
2019-04-21T07:32:04.395Z,32288.00
2019-04-21T07:33:06.889Z,34624.00
2019-04-21T07:34:01.550Z,52096.00
2019-04-21T07:34:57.840Z,65088.00
2019-04-21T07:35:55.793Z,72320.00
2019-04-21T07:38:01.285Z,56128.00
2019-04-21T07:38:58.955Z,48736.00
2019-04-21T07:39:54.655Z,43648.00
2019-04-21T07:40:45.772Z,47808.00
2019-04-21T07:41:53.880Z,47712.00
2019-04-21T07:42:53.748Z,40288.00
2019-04-21T07:43:51.007Z,45440.00
2019-04-21T07:44:51.254Z,37504.00
2019-04-21T07:45:49.802Z,28064.00
2019-04-21T07:46:45.187Z,49120.00
2019-04-21T07:47:58.678Z,52192.00
2019-04-21T07:48:55.418Z,35200.00
2019-04-21T07:49:59.176Z,32320.00
2019-04-21T07:50:57.448Z,31360.00
2019-04-21T07:52:00.493Z,22176.00
2019-04-21T07:53:01.517Z,19840.00
2019-04-21T07:54:08.882Z,27712.00
2019-04-21T07:55:06.242Z,38080.00
2019-04-21T07:55:37.312Z,43296.00
2019-04-21T07:56:40.897Z,58688.00
2019-04-21T07:57:52.694Z,75520.00
2019-04-21T07:58:58.262Z,72544.00
2019-04-21T08:00:10.178Z,58208.00
2019-04-21T08:00:57.723Z,57920.00
2019-04-21T08:01:56.417Z,46592.00
2019-04-21T08:02:54.451Z,32032.00
2019-04-21T08:03:57.044Z,34048.00
2019-04-21T08:05:02.363Z,38560.00
2019-04-21T08:05:58.488Z,24768.00
2019-04-21T08:06:51.612Z,28544.00
2019-04-21T08:08:52.919Z,47232.00
2019-04-21T08:09:51.162Z,47616.00
2019-04-21T08:10:52.349Z,49184.00
2019-04-21T08:11:48.670Z,61280.00
2019-04-21T08:12:55.618Z,62272.00
2019-04-21T08:13:54.507Z,60704.00
2019-04-21T08:14:57.433Z,59808.00
2019-04-21T08:15:52.832Z,60512.00
2019-04-21T08:16:58.921Z,58208.00
2019-04-21T08:17:53.389Z,53952.00
2019-04-21T08:18:52.106Z,41824.00
2019-04-21T08:19:53.641Z,27392.00
2019-04-21T08:20:54.947Z,26816.00
2019-04-21T08:22:01.051Z,38912.00
2019-04-21T08:23:13.456Z,59520.00
2019-04-21T08:23:54.229Z,67680.00
2019-04-21T08:24:59.462Z,67392.00
2019-04-21T08:26:03.279Z,68896.00
2019-04-21T08:26:58.566Z,69152.00
2019-04-21T08:28:01.156Z,45760.00
2019-04-21T08:29:51.983Z,60448.00
2019-04-21T08:30:56.844Z,73920.00
2019-04-21T08:32:02.614Z,78688.00
2019-04-21T08:33:05.468Z,85248.00
2019-04-21T08:34:01.720Z,88672.00
2019-04-21T08:35:14.799Z,84640.00
2019-04-21T08:36:52.836Z,54272.00
2019-04-21T08:37:55.237Z,50752.00
2019-04-21T08:38:54.509Z,61056.00
2019-04-21T08:40:04.474Z,63136.00
2019-04-21T08:41:00.117Z,68384.00
2019-04-21T08:42:01.315Z,73760.00
2019-04-21T08:42:55.242Z,61120.00
2019-04-21T08:43:51.887Z,56032.00
2019-04-21T08:44:52.462Z,55936.00
2019-04-21T08:45:54.848Z,54464.00
2019-04-21T08:46:58.889Z,54464.00
2019-04-21T08:47:52.043Z,53536.00
2019-04-21T08:48:59.328Z,51392.00
2019-04-21T08:49:55.424Z,51520.00
2019-04-21T08:51:06.265Z,67072.00
2019-04-21T08:52:04.034Z,64800.00
2019-04-21T08:52:58.413Z,74752.00
2019-04-21T08:54:05.457Z,76000.00
2019-04-21T08:54:55.716Z,59488.00
2019-04-21T08:56:04.370Z,59808.00
2019-04-21T08:56:52.923Z,62240.00
2019-04-21T08:58:08.424Z,56864.00
2019-04-21T08:58:55.956Z,40992.00
2019-04-21T09:00:03.459Z,53728.00
2019-04-21T09:00:55.234Z,72992.00
2019-04-21T09:01:55.752Z,71616.00
2019-04-21T09:03:00.381Z,73632.00
2019-04-21T09:03:56.287Z,89760.00
2019-04-21T09:04:52.860Z,86816.00
2019-04-21T09:05:52.580Z,96896.00
2019-04-21T09:07:05.320Z,101312.00
2019-04-21T09:07:57.495Z,102240.00
2019-04-21T09:08:53.502Z,104096.00
2019-04-21T09:09:55.832Z,105088.00
2019-04-21T09:10:55.871Z,105696.00
2019-04-21T09:11:56.626Z,105344.00
2019-04-21T09:12:55.685Z,104320.00
2019-04-21T09:13:57.151Z,104064.00
2019-04-21T09:14:56.656Z,106624.00
2019-04-21T09:15:52.500Z,107360.00
2019-04-21T09:16:53.096Z,106880.00
2019-04-21T09:17:44.594Z,105952.00
2019-04-21T09:18:48.672Z,105792.00
2019-04-21T09:19:57.884Z,104896.00
2019-04-21T09:20:59.862Z,103552.00
2019-04-21T09:21:57.473Z,103008.00
2019-04-21T09:22:55.726Z,103968.00
2019-04-21T09:23:52.260Z,103840.00
2019-04-21T09:24:53.585Z,104224.00
2019-04-21T09:25:52.338Z,103616.00
2019-04-21T09:26:51.357Z,104224.00
2019-04-21T09:27:47.063Z,104416.00
2019-04-21T09:28:47.980Z,103872.00
2019-04-21T09:29:39.250Z,104832.00
2019-04-21T09:30:42.255Z,105792.00
2019-04-21T09:31:40.860Z,106912.00
2019-04-21T09:32:36.348Z,106912.00
2019-04-21T09:33:40.719Z,108224.00
2019-04-21T09:34:38.544Z,107936.00
2019-04-21T09:35:34.018Z,108832.00
2019-04-21T09:36:42.734Z,108512.00
2019-04-21T09:37:44.426Z,108416.00
2019-04-21T09:38:38.078Z,108800.00
2019-04-21T09:39:43.308Z,109088.00
2019-04-21T09:40:40.078Z,110528.00
2019-04-21T09:41:37.378Z,109824.00
2019-04-21T09:42:40.108Z,110208.00
2019-04-21T09:43:41.269Z,109920.00
2019-04-21T09:44:40.010Z,111584.00
2019-04-21T09:45:35.486Z,112128.00
2019-04-21T09:46:41.904Z,113216.00
2019-04-21T09:47:43.430Z,113344.00
2019-04-21T09:48:46.608Z,114144.00
2019-04-21T09:49:37.216Z,113568.00
2019-04-21T09:50:35.050Z,114464.00
2019-04-21T09:51:34.635Z,114912.00
2019-04-21T09:52:41.768Z,115904.00
2019-04-21T09:53:38.013Z,116288.00
2019-04-21T09:54:45.247Z,117120.00
2019-04-21T09:55:44.023Z,116768.00
2019-04-21T09:56:41.443Z,116480.00
2019-04-21T09:57:42.682Z,114816.00
2019-04-21T09:58:40.013Z,115008.00
2019-04-21T09:59:38.719Z,114432.00
2019-04-21T10:00:46.455Z,113184.00
2019-04-21T10:01:49.081Z,112416.00
2019-04-21T10:02:42.760Z,112448.00
2019-04-21T10:03:41.218Z,111264.00
2019-04-21T10:04:34.054Z,110816.00
2019-04-21T10:05:34.062Z,110560.00
2019-04-21T10:06:34.994Z,110592.00
2019-04-21T10:07:38.474Z,111584.00
2019-04-21T10:08:34.369Z,111296.00
2019-04-21T10:09:35.445Z,112576.00
2019-04-21T10:10:34.229Z,114240.00
2019-04-21T10:11:35.471Z,114560.00
2019-04-21T10:12:35.073Z,116640.00
2019-04-21T10:13:34.067Z,117984.00
2019-04-21T10:14:34.071Z,118272.00
2019-04-21T10:15:35.422Z,119744.00
2019-04-21T10:16:34.349Z,119936.00
2019-04-21T10:17:35.059Z,117952.00
2019-04-21T10:18:34.076Z,113568.00
2019-04-21T10:19:34.078Z,111808.00
2019-04-21T10:20:34.079Z,112544.00
2019-04-21T10:21:34.082Z,111680.00
2019-04-21T10:22:35.077Z,112192.00
2019-04-21T10:23:34.088Z,111296.00
2019-04-21T10:24:34.108Z,111232.00
2019-04-21T10:25:34.542Z,110240.00
2019-04-21T10:26:35.443Z,109888.00
2019-04-21T10:27:34.846Z,109376.00
2019-04-21T10:28:35.135Z,110080.00
2019-04-21T10:29:35.791Z,109888.00
2019-04-21T10:30:34.731Z,110464.00
2019-04-21T10:31:34.648Z,112064.00
2019-04-21T10:32:34.523Z,112736.00
2019-04-21T10:33:34.509Z,113248.00
2019-04-21T10:34:34.849Z,114528.00
2019-04-21T10:35:35.231Z,114592.00
2019-04-21T10:36:35.116Z,115808.00
2019-04-21T10:37:45.593Z,117216.00
2019-04-21T10:38:40.542Z,118208.00
2019-04-21T10:39:34.115Z,118272.00
2019-04-21T10:40:36.888Z,118432.00
2019-04-21T10:41:35.132Z,118464.00
2019-04-21T10:42:35.370Z,117376.00
2019-04-21T10:43:35.484Z,116320.00
2019-04-21T10:44:34.713Z,114272.00
2019-04-21T10:45:34.924Z,113248.00
2019-04-21T10:46:35.021Z,112320.00
2019-04-21T10:47:34.604Z,111360.00
2019-04-21T10:48:35.074Z,109984.00
2019-04-21T10:49:34.942Z,110880.00
2019-04-21T10:50:34.815Z,110816.00
2019-04-21T10:51:35.154Z,111392.00
2019-04-21T10:52:35.882Z,111712.00
2019-04-21T10:53:34.553Z,111936.00
2019-04-21T10:55:01.316Z,113312.00
2019-04-21T10:55:48.556Z,114464.00
2019-04-21T10:56:39.763Z,115392.00
2019-04-21T10:57:34.869Z,115936.00
2019-04-21T10:58:34.272Z,116608.00
2019-04-21T10:59:34.984Z,118368.00
2019-04-21T11:00:34.398Z,117920.00
2019-04-21T11:01:34.751Z,117632.00
2019-04-21T11:02:34.886Z,116064.00
2019-04-21T11:03:35.240Z,114848.00
2019-04-21T11:04:37.394Z,114112.00
2019-04-21T11:05:34.518Z,113472.00
2019-04-21T11:06:34.773Z,113536.00
2019-04-21T11:07:45.109Z,113472.00
2019-04-21T11:08:40.938Z,111072.00
2019-04-21T11:09:34.164Z,110656.00
2019-04-21T11:10:34.166Z,109632.00
2019-04-21T11:11:34.249Z,109792.00
2019-04-21T11:12:36.503Z,109600.00
2019-04-21T11:13:34.771Z,109536.00
2019-04-21T11:14:35.490Z,110144.00
2019-04-21T11:15:35.052Z,109952.00
2019-04-21T11:16:35.162Z,112256.00
2019-04-21T11:17:34.243Z,112064.00
2019-04-21T11:18:34.183Z,112832.00
2019-04-21T11:19:34.863Z,113408.00
2019-04-21T11:20:35.152Z,113792.00
2019-04-21T11:21:34.626Z,114656.00
2019-04-21T11:22:35.717Z,114720.00
2019-04-21T11:23:35.380Z,114464.00
2019-04-21T11:24:35.074Z,114528.00
2019-04-21T11:25:34.184Z,113920.00
2019-04-21T11:26:34.188Z,113664.00
2019-04-21T11:27:35.111Z,113152.00
2019-04-21T11:28:34.626Z,112032.00
2019-04-21T11:29:35.067Z,110592.00
2019-04-21T11:30:34.195Z,109344.00
2019-04-21T11:31:34.195Z,108000.00
2019-04-21T11:32:35.078Z,107072.00
2019-04-21T11:33:35.608Z,106080.00
2019-04-21T11:34:34.204Z,105632.00
2019-04-21T11:35:35.238Z,105056.00
2019-04-21T11:36:35.300Z,106432.00
2019-04-21T11:37:34.634Z,107200.00
2019-04-21T11:38:52.693Z,107360.00
2019-04-21T11:39:42.231Z,107744.00
2019-04-21T11:40:34.213Z,107488.00
2019-04-21T11:41:34.213Z,108544.00
2019-04-21T11:42:35.527Z,109792.00
2019-04-21T11:43:35.126Z,111040.00
2019-04-21T11:44:35.313Z,111008.00
2019-04-21T11:45:34.681Z,110592.00
2019-04-21T11:46:34.305Z,109952.00
2019-04-21T11:47:34.314Z,109664.00
2019-04-21T11:48:34.618Z,108160.00
2019-04-21T11:49:34.858Z,107328.00
2019-04-21T11:50:35.082Z,106880.00
2019-04-21T11:51:35.216Z,104608.00
2019-04-21T11:52:34.764Z,102784.00
2019-04-21T11:53:34.864Z,101376.00
2019-04-21T11:54:35.069Z,100480.00
2019-04-21T11:55:39.175Z,100256.00
2019-04-21T11:56:34.792Z,100224.00
2019-04-21T11:57:38.343Z,101728.00
2019-04-21T11:58:34.253Z,103008.00
2019-04-21T11:59:35.475Z,104736.00
2019-04-21T12:00:35.534Z,105024.00
2019-04-21T12:01:34.260Z,105856.00
2019-04-21T12:02:35.305Z,105920.00
2019-04-21T12:03:35.639Z,105824.00
2019-04-21T12:04:34.267Z,107520.00
2019-04-21T12:05:35.253Z,107424.00
2019-04-21T12:06:38.594Z,107360.00
2019-04-21T12:07:35.373Z,107616.00
2019-04-21T12:08:40.414Z,105760.00
2019-04-21T12:09:35.428Z,104288.00
2019-04-21T12:10:35.250Z,104224.00
2019-04-21T12:11:35.563Z,102656.00
2019-04-21T12:12:35.075Z,101760.00
2019-04-21T12:13:34.430Z,100608.00
2019-04-21T12:14:34.286Z,99648.00
2019-04-21T12:15:34.676Z,101568.00
2019-04-21T12:16:35.104Z,102048.00
2019-04-21T12:17:34.292Z,100160.00
2019-04-21T12:18:34.290Z,100704.00
2019-04-21T12:19:34.731Z,100928.00
2019-04-21T12:20:35.427Z,101184.00
2019-04-21T12:21:47.967Z,101408.00
2019-04-21T12:22:35.672Z,101984.00
2019-04-21T12:23:34.451Z,102592.00
2019-04-21T12:24:34.995Z,103520.00
2019-04-21T12:25:34.308Z,105216.00
2019-04-21T12:26:34.303Z,104672.00
2019-04-21T12:27:34.305Z,102528.00
2019-04-21T12:28:34.350Z,100416.00
2019-04-21T12:29:35.504Z,100288.00
2019-04-21T12:30:35.639Z,99872.00
2019-04-21T12:31:34.309Z,98112.00
2019-04-21T12:32:34.324Z,96896.00
2019-04-21T12:33:34.310Z,95424.00
2019-04-21T12:34:34.364Z,95744.00
2019-04-21T12:35:35.594Z,95328.00
2019-04-21T12:36:34.316Z,94240.00
2019-04-21T12:37:35.105Z,91968.00
2019-04-21T12:38:42.621Z,91424.00
2019-04-21T12:39:34.758Z,90720.00
2019-04-21T12:40:34.696Z,91360.00
2019-04-21T12:41:34.331Z,91872.00
2019-04-21T12:42:34.613Z,92896.00
2019-04-21T12:43:34.881Z,91008.00
2019-04-21T12:44:34.321Z,91936.00
2019-04-21T12:45:35.837Z,91008.00
2019-04-21T12:46:34.321Z,91680.00
2019-04-21T12:47:34.322Z,92352.00
2019-04-21T12:48:35.722Z,92736.00
2019-04-21T12:49:34.336Z,90976.00
2019-04-21T12:50:34.322Z,91488.00
2019-04-21T12:51:35.585Z,90720.00
2019-04-21T12:52:35.616Z,89760.00
2019-04-21T12:53:34.321Z,91104.00
2019-04-21T12:54:35.461Z,89536.00
2019-04-21T12:55:38.404Z,89024.00
2019-04-21T12:56:35.665Z,87616.00
2019-04-21T12:57:35.130Z,87328.00
2019-04-21T12:58:35.255Z,86752.00
2019-04-21T12:59:35.893Z,85952.00
2019-04-21T13:00:34.320Z,84416.00
2019-04-21T13:01:34.971Z,84416.00
2019-04-21T13:02:35.717Z,84832.00
2019-04-21T13:03:34.336Z,84512.00
2019-04-21T13:04:35.688Z,84928.00
2019-04-21T13:05:35.690Z,85440.00
2019-04-21T13:06:34.311Z,85504.00
2019-04-21T13:07:35.428Z,84480.00
2019-04-21T13:08:45.531Z,46976.00
2019-04-21T13:09:35.815Z,85152.00
2019-04-21T13:10:34.308Z,85184.00